Time;durP1;ratioP1;P1;durP2;ratioP2;P2;SDS_P1;SDS_P2;PMS_P1;PMS_P2;Temp;Humidity;BMP_temperature;BMP_pressure;BME280_temperature;BME280_humidity;BME280_pressure;Samples;Min_cycle;Max_cycle;Signal;HPM_P1;HPM_P2
2023/04/18 00:00:13;;;;;;;;;;;15.20;72.90;;;;;;5024773;28;19913;-90
2023/04/18 00:02:39;;;;;;;;;;;15.10;72.80;;;;;;5024393;28;19909;-91
2023/04/18 00:05:06;;;;;;;;;;;15.10;72.70;;;;;;5022844;28;19913;-90
2023/04/18 00:07:32;;;;;;;;;;;15.10;72.70;;;;;;5023526;28;19959;-91
2023/04/18 00:09:57;;;;;;;;;;;15.10;72.60;;;;;;5018452;28;19913;-90
2023/04/18 00:12:23;;;;;;;;;;;15.10;72.60;;;;;;5017850;28;19909;-91
2023/04/18 00:14:51;;;;;;;;;;;15.00;72.50;;;;;;5016871;28;19909;-91
2023/04/18 00:17:17;;;;;;;;;;;15.00;72.50;;;;;;5018952;28;20247;-91
2023/04/18 00:19:43;;;;;;;;;;;15.00;72.50;;;;;;5019078;28;19924;-91
2023/04/18 00:22:09;;;;;;;;;;;15.00;72.50;;;;;;5019837;28;19909;-91
2023/04/18 00:24:35;;;;;;;;;;;15.00;72.50;;;;;;5036062;28;19979;-91
2023/04/18 00:27:00;;;;;;;;;;;15.00;72.40;;;;;;5017956;28;19917;-91
2023/04/18 00:29:26;;;;;;;;;;;15.00;72.30;;;;;;5017397;28;19909;-91
2023/04/18 00:31:52;;;;;;;;;;;14.90;72.10;;;;;;5017380;28;19909;-91
2023/04/18 00:34:18;;;;;;;;;;;14.90;72.10;;;;;;5016097;28;19909;-91
2023/04/18 00:36:43;;;;;;;;;;;14.90;72.00;;;;;;5033986;28;20134;-91
2023/04/18 00:39:09;;;;;;;;;;;14.90;72.00;;;;;;5016049;28;19924;-91
2023/04/18 00:41:35;;;;;;;;;;;14.80;71.90;;;;;;5033253;28;19921;-91
2023/04/18 00:44:00;;;;;;;;;;;14.80;71.80;;;;;;5016464;28;19983;-91
2023/04/18 00:46:26;;;;;;;;;;;14.80;71.70;;;;;;5015800;28;19909;-91
2023/04/18 00:48:51;;;;;;;;;;;14.80;71.60;;;;;;5015908;28;19920;-91
2023/04/18 00:51:17;;;;;;;;;;;14.80;71.60;;;;;;5017789;28;19909;-91
2023/04/18 00:53:43;;;;;;;;;;;14.80;71.70;;;;;;5017914;28;19924;-91
2023/04/18 00:56:08;;;;;;;;;;;14.80;71.70;;;;;;5017537;28;19935;-91
2023/04/18 00:58:34;;;;;;;;;;;14.70;71.50;;;;;;5017777;28;19913;-91
2023/04/18 01:01:00;;;;;;;;;;;14.70;71.50;;;;;;5018332;28;20101;-91
2023/04/18 01:03:25;;;;;;;;;;;14.70;71.40;;;;;;5016924;28;19968;-91
2023/04/18 01:05:56;;;;;;;;;;;14.70;71.40;;;;;;5017892;28;19909;-90
2023/04/18 01:08:22;;;;;;;;;;;14.70;71.40;;;;;;5017946;28;20003;-91
2023/04/18 01:10:48;;;;;;;;;;;14.60;71.20;;;;;;5017387;28;20277;-91
2023/04/18 01:13:14;;;;;;;;;;;14.60;71.20;;;;;;5018176;28;20424;-91
2023/04/18 01:15:44;;;;;;;;;;;14.60;71.10;;;;;;5018854;28;19968;-92
2023/04/18 01:18:10;;;;;;;;;;;14.60;71.10;;;;;;5019731;28;19909;-91
2023/04/18 01:20:39;;;;;;;;;;;14.60;71.00;;;;;;5019341;28;19917;-91
2023/04/18 01:23:05;;;;;;;;;;;14.50;70.90;;;;;;5019441;28;19909;-90
2023/04/18 01:25:31;;;;;;;;;;;14.50;70.90;;;;;;5018526;28;20011;-91
2023/04/18 01:27:57;;;;;;;;;;;14.50;70.90;;;;;;5019401;28;20332;-91
2023/04/18 01:30:23;;;;;;;;;;;14.50;71.00;;;;;;5018604;28;19917;-90
2023/04/18 01:32:48;;;;;;;;;;;14.50;71.00;;;;;;5020025;28;19909;-91
2023/04/18 01:35:14;;;;;;;;;;;14.50;71.00;;;;;;5018726;28;19923;-91
2023/04/18 01:37:40;;;;;;;;;;;14.50;71.10;;;;;;4954217;28;19913;-91
2023/04/18 01:40:06;;;;;;;;;;;14.40;71.10;;;;;;5014386;28;20031;-91
2023/04/18 01:42:31;;;;;;;;;;;14.40;71.20;;;;;;5014405;28;19909;-90
2023/04/18 01:44:57;;;;;;;;;;;14.40;71.20;;;;;;5014188;28;20027;-91
2023/04/18 01:47:22;;;;;;;;;;;14.40;71.20;;;;;;5016375;28;19909;-91
2023/04/18 01:49:48;;;;;;;;;;;14.40;71.30;;;;;;5032845;28;19909;-91
2023/04/18 01:52:13;;;;;;;;;;;14.40;71.40;;;;;;5033781;28;19909;-91
2023/04/18 01:54:39;;;;;;;;;;;14.40;71.40;;;;;;5016081;28;20362;-90
2023/04/18 01:57:05;;;;;;;;;;;14.40;71.40;;;;;;5016508;28;20318;-90
2023/04/18 01:59:30;;;;;;;;;;;14.40;71.40;;;;;;5014686;28;20380;-91
2023/04/18 02:01:56;;;;;;;;;;;14.30;71.20;;;;;;5015452;28;20223;-91
2023/04/18 02:04:21;;;;;;;;;;;14.30;71.20;;;;;;5016335;28;19909;-90
2023/04/18 02:06:47;;;;;;;;;;;14.30;71.20;;;;;;5015662;28;20343;-90
2023/04/18 02:09:12;;;;;;;;;;;14.30;71.20;;;;;;5014896;28;19944;-91
2023/04/18 02:11:38;;;;;;;;;;;14.30;71.30;;;;;;5016820;28;19913;-91
2023/04/18 02:14:03;;;;;;;;;;;14.30;71.30;;;;;;5033030;28;19919;-91
2023/04/18 02:16:29;;;;;;;;;;;14.30;71.40;;;;;;5019032;28;19915;-91
2023/04/18 02:18:54;;;;;;;;;;;14.30;71.40;;;;;;5034007;28;20231;-91
2023/04/18 02:21:20;;;;;;;;;;;14.30;71.40;;;;;;5018878;28;20078;-90
2023/04/18 02:23:46;;;;;;;;;;;14.20;71.40;;;;;;5016943;28;19995;-91
2023/04/18 02:26:12;;;;;;;;;;;14.20;71.40;;;;;;5017689;28;19987;-91
2023/04/18 02:28:37;;;;;;;;;;;14.20;71.30;;;;;;5016922;28;19913;-91
2023/04/18 02:31:03;;;;;;;;;;;14.20;71.40;;;;;;5034344;28;19976;-91
2023/04/18 02:33:29;;;;;;;;;;;14.20;71.40;;;;;;5017104;28;19987;-91
2023/04/18 02:35:54;;;;;;;;;;;14.20;71.40;;;;;;5017046;28;19921;-91
2023/04/18 02:38:20;;;;;;;;;;;14.20;71.40;;;;;;5019198;28;19909;-91
2023/04/18 02:40:46;;;;;;;;;;;14.20;71.40;;;;;;5037030;28;20008;-91
2023/04/18 02:43:11;;;;;;;;;;;14.10;71.30;;;;;;5019329;28;19952;-91
2023/04/18 02:45:37;;;;;;;;;;;14.10;71.40;;;;;;5036338;28;20207;-91
2023/04/18 02:48:02;;;;;;;;;;;14.10;71.40;;;;;;5019425;28;19909;-90
2023/04/18 02:50:28;;;;;;;;;;;14.10;71.50;;;;;;5019272;28;19963;-91
2023/04/18 02:52:54;;;;;;;;;;;14.10;71.50;;;;;;5018845;28;20212;-90
2023/04/18 02:55:21;;;;;;;;;;;14.10;71.60;;;;;;5018906;28;19910;-90
2023/04/18 02:57:46;;;;;;;;;;;14.10;71.50;;;;;;5018641;28;19909;-90
2023/04/18 03:00:12;;;;;;;;;;;14.10;71.40;;;;;;5017955;28;20246;-90
2023/04/18 03:02:38;;;;;;;;;;;14.00;71.40;;;;;;5017829;28;19913;-90
2023/04/18 03:05:04;;;;;;;;;;;14.00;71.40;;;;;;5022783;28;19913;-90
2023/04/18 03:07:30;;;;;;;;;;;14.00;71.40;;;;;;5039742;28;20347;-90
2023/04/18 03:09:55;;;;;;;;;;;14.00;71.40;;;;;;5022605;28;19996;-90
2023/04/18 03:12:21;;;;;;;;;;;14.00;71.60;;;;;;5021368;28;19970;-90
2023/04/18 03:14:46;;;;;;;;;;;14.00;71.50;;;;;;5020276;28;19920;-90
2023/04/18 03:17:12;;;;;;;;;;;14.00;71.50;;;;;;5021780;28;20015;-91
2023/04/18 03:19:37;;;;;;;;;;;14.00;71.60;;;;;;5020517;28;20019;-91
2023/04/18 03:22:03;;;;;;;;;;;14.00;71.60;;;;;;5020815;28;20016;-91
2023/04/18 03:24:28;;;;;;;;;;;14.00;71.70;;;;;;5020652;28;19909;-90
2023/04/18 03:26:54;;;;;;;;;;;13.90;71.70;;;;;;5037746;28;20002;-91
2023/04/18 03:29:20;;;;;;;;;;;13.90;71.70;;;;;;5037516;28;20279;-90
2023/04/18 03:31:45;;;;;;;;;;;13.90;71.70;;;;;;5020245;28;20100;-91
2023/04/18 03:34:11;;;;;;;;;;;13.90;71.70;;;;;;5019808;28;19935;-91
2023/04/18 03:36:37;;;;;;;;;;;13.90;71.60;;;;;;5021144;28;19909;-91
2023/04/18 03:39:02;;;;;;;;;;;13.90;72.20;;;;;;5020031;28;19921;-90
2023/04/18 03:41:28;;;;;;;;;;;13.90;71.50;;;;;;5019275;28;19936;-91
2023/04/18 03:43:53;;;;;;;;;;;13.90;71.40;;;;;;5019973;28;20122;-91
2023/04/18 03:46:20;;;;;;;;;;;13.90;71.30;;;;;;5037878;28;19909;-90
2023/04/18 03:48:46;;;;;;;;;;;13.80;71.00;;;;;;5018305;28;20000;-91
2023/04/18 03:51:13;;;;;;;;;;;13.80;70.90;;;;;;5017592;28;20058;-91
2023/04/18 03:53:38;;;;;;;;;;;13.80;70.70;;;;;;5018667;28;20289;-92
2023/04/18 03:56:05;;;;;;;;;;;13.80;70.60;;;;;;5019005;28;20063;-91
2023/04/18 03:58:31;;;;;;;;;;;13.80;70.50;;;;;;5020871;28;20059;-90
2023/04/18 04:00:56;;;;;;;;;;;13.80;70.30;;;;;;5018567;28;20007;-91
2023/04/18 04:03:23;;;;;;;;;;;13.70;70.10;;;;;;5018618;28;19988;-91
2023/04/18 04:05:49;;;;;;;;;;;13.70;70.10;;;;;;5018635;28;20271;-90
2023/04/18 04:08:15;;;;;;;;;;;13.70;70.00;;;;;;5016917;28;19913;-91
2023/04/18 04:10:45;;;;;;;;;;;13.70;70.00;;;;;;5016481;28;20257;-91
2023/04/18 04:13:11;;;;;;;;;;;13.70;69.90;;;;;;5017785;28;19909;-91
2023/04/18 04:15:37;;;;;;;;;;;13.70;70.00;;;;;;5013858;28;20169;-90
2023/04/18 04:18:04;;;;;;;;;;;13.70;70.00;;;;;;5035748;28;20168;-91
2023/04/18 04:20:29;;;;;;;;;;;13.60;69.80;;;;;;5017176;28;20192;-91
2023/04/18 04:23:00;;;;;;;;;;;13.60;69.80;;;;;;5016303;28;19915;-90
2023/04/18 04:25:27;;;;;;;;;;;13.60;69.80;;;;;;5017580;28;19909;-90
2023/04/18 04:27:53;;;;;;;;;;;13.60;69.70;;;;;;5016675;28;19913;-90
2023/04/18 04:30:19;;;;;;;;;;;13.60;69.80;;;;;;5017392;28;19940;-91
2023/04/18 04:32:46;;;;;;;;;;;13.60;69.70;;;;;;5015013;28;20169;-91
2023/04/18 04:35:12;;;;;;;;;;;13.50;69.70;;;;;;5015169;28;20015;-90
2023/04/18 04:37:39;;;;;;;;;;;13.50;69.70;;;;;;5014685;28;19996;-90
2023/04/18 04:40:08;;;;;;;;;;;13.50;69.60;;;;;;5033335;28;19913;-92
2023/04/18 04:42:39;;;;;;;;;;;13.50;69.70;;;;;;5018331;28;19916;-90
2023/04/18 04:45:07;;;;;;;;;;;13.50;69.70;;;;;;5016505;28;19936;-90
2023/04/18 04:47:32;;;;;;;;;;;13.50;69.70;;;;;;5015296;28;19917;-90
2023/04/18 04:49:58;;;;;;;;;;;13.50;69.70;;;;;;5014816;28;19909;-90
2023/04/18 04:52:23;;;;;;;;;;;13.50;69.70;;;;;;5013751;28;20188;-90
2023/04/18 04:54:49;;;;;;;;;;;13.40;69.60;;;;;;5013139;28;19917;-90
2023/04/18 04:57:15;;;;;;;;;;;13.50;69.70;;;;;;5013917;28;19917;-90
2023/04/18 04:59:44;;;;;;;;;;;13.50;69.70;;;;;;5013806;28;20202;-90
2023/04/18 05:02:10;;;;;;;;;;;13.40;70.20;;;;;;5018055;28;20064;-91
2023/04/18 05:04:35;;;;;;;;;;;13.50;69.60;;;;;;5016657;28;20011;-91
2023/04/18 05:07:01;;;;;;;;;;;13.50;69.50;;;;;;5034217;28;19909;-91
2023/04/18 05:09:26;;;;;;;;;;;13.50;69.50;;;;;;5031947;28;19909;-90
2023/04/18 05:11:52;;;;;;;;;;;13.40;69.40;;;;;;5030644;28;19924;-91
2023/04/18 05:14:19;;;;;;;;;;;13.50;69.40;;;;;;5015732;28;19920;-90
2023/04/18 05:16:44;;;;;;;;;;;13.40;69.30;;;;;;5016590;28;19909;-90
2023/04/18 05:19:18;;;;;;;;;;;13.50;69.20;;;;;;5012919;28;20210;-90
2023/04/18 05:21:44;;;;;;;;;;;13.50;69.10;;;;;;5009582;28;20259;-91
2023/04/18 05:24:09;;;;;;;;;;;13.50;68.80;;;;;;5026306;28;20015;-90
2023/04/18 05:26:35;;;;;;;;;;;13.60;68.50;;;;;;5007293;28;20154;-90
2023/04/18 05:29:13;;;;;;;;;;;13.70;68.20;;;;;;5009063;28;20027;-90
2023/04/18 05:31:39;;;;;;;;;;;13.70;67.90;;;;;;5007870;28;20291;-90
2023/04/18 05:34:13;;;;;;;;;;;13.80;67.60;;;;;;5008877;28;19935;-90
2023/04/18 05:36:38;;;;;;;;;;;13.80;67.40;;;;;;5008750;28;20290;-90
2023/04/18 05:39:04;;;;;;;;;;;13.90;67.10;;;;;;5008089;28;20014;-90
2023/04/18 05:41:36;;;;;;;;;;;14.00;66.80;;;;;;5007881;28;19948;-91
2023/04/18 05:44:08;;;;;;;;;;;14.10;66.30;;;;;;5007641;28;20149;-90
2023/04/18 05:46:36;;;;;;;;;;;14.10;66.10;;;;;;5007431;28;20255;-91
2023/04/18 05:49:02;;;;;;;;;;;14.10;66.00;;;;;;5008619;28;19909;-90
2023/04/18 05:51:28;;;;;;;;;;;14.10;66.00;;;;;;5008244;28;19905;-91
2023/04/18 05:53:53;;;;;;;;;;;14.00;66.00;;;;;;5008806;28;19909;-90
2023/04/18 05:56:19;;;;;;;;;;;14.00;66.20;;;;;;5006635;28;19909;-90
2023/04/18 05:58:53;;;;;;;;;;;14.00;66.20;;;;;;5006936;28;19913;-91
2023/04/18 06:01:20;;;;;;;;;;;14.00;66.20;;;;;;5008639;28;19909;-91
2023/04/18 06:03:45;;;;;;;;;;;13.90;66.20;;;;;;5009363;28;19917;-90
2023/04/18 06:06:11;;;;;;;;;;;13.90;66.40;;;;;;5009547;28;20038;-90
2023/04/18 06:08:37;;;;;;;;;;;13.90;66.60;;;;;;5007792;28;19967;-90
2023/04/18 06:11:03;;;;;;;;;;;13.90;66.70;;;;;;5026743;28;19944;-91
2023/04/18 06:13:29;;;;;;;;;;;13.80;66.70;;;;;;5026402;28;19948;-90
2023/04/18 06:15:55;;;;;;;;;;;13.80;67.00;;;;;;5009222;28;19909;-90
2023/04/18 06:18:20;;;;;;;;;;;13.80;67.10;;;;;;5024017;28;19909;-90
2023/04/18 06:20:46;;;;;;;;;;;13.80;67.30;;;;;;5007775;28;19917;-91
2023/04/18 06:23:11;;;;;;;;;;;13.80;67.40;;;;;;5023461;28;20052;-90
2023/04/18 06:25:43;;;;;;;;;;;13.70;67.40;;;;;;5009547;28;20065;-90
2023/04/18 06:28:08;;;;;;;;;;;13.80;67.50;;;;;;5008192;28;20174;-91
2023/04/18 06:30:44;;;;;;;;;;;13.70;67.50;;;;;;5007729;28;19936;-90
2023/04/18 06:33:09;;;;;;;;;;;13.70;67.60;;;;;;5006774;28;20264;-90
2023/04/18 06:35:35;;;;;;;;;;;13.70;67.60;;;;;;5007854;28;20000;-90
2023/04/18 06:38:01;;;;;;;;;;;13.70;67.60;;;;;;5009451;28;19936;-90
2023/04/18 06:40:26;;;;;;;;;;;13.70;67.70;;;;;;5025403;28;20026;-91
2023/04/18 06:42:52;;;;;;;;;;;13.70;67.80;;;;;;5007301;28;19921;-90
2023/04/18 06:45:30;;;;;;;;;;;13.70;67.90;;;;;;5009724;28;19909;-90
2023/04/18 06:48:04;;;;;;;;;;;13.70;68.20;;;;;;5009319;28;19913;-89
2023/04/18 06:50:30;;;;;;;;;;;13.70;68.20;;;;;;5011308;28;19908;-90
2023/04/18 06:52:55;;;;;;;;;;;13.70;68.20;;;;;;5012125;28;20291;-90
2023/04/18 06:55:29;;;;;;;;;;;13.70;68.20;;;;;;5010717;28;19909;-90
2023/04/18 06:57:56;;;;;;;;;;;13.70;68.40;;;;;;5010331;28;19930;-90
2023/04/18 07:00:34;;;;;;;;;;;13.70;68.30;;;;;;5008957;28;19917;-90
2023/04/18 07:03:01;;;;;;;;;;;13.70;68.40;;;;;;5010277;28;19913;-91
2023/04/18 07:05:30;;;;;;;;;;;13.70;68.30;;;;;;5017648;28;19974;-91
2023/04/18 07:07:56;;;;;;;;;;;13.70;68.30;;;;;;5011925;28;19919;-90
2023/04/18 07:10:25;;;;;;;;;;;13.70;68.40;;;;;;5008819;28;20063;-90
2023/04/18 07:12:51;;;;;;;;;;;13.70;68.50;;;;;;5011677;28;20170;-90
2023/04/18 07:15:16;;;;;;;;;;;13.70;68.50;;;;;;5007010;28;19913;-88
2023/04/18 07:17:42;;;;;;;;;;;13.70;68.50;;;;;;5007140;28;19998;-89
2023/04/18 07:20:08;;;;;;;;;;;13.70;68.50;;;;;;5006206;28;19977;-89
2023/04/18 07:22:57;;;;;;;;;;;13.70;68.60;;;;;;5006956;28;19945;-90
2023/04/18 07:25:24;;;;;;;;;;;13.70;68.70;;;;;;5009172;28;20295;-90
2023/04/18 07:27:49;;;;;;;;;;;13.70;68.80;;;;;;5026055;28;20089;-90
2023/04/18 07:30:15;;;;;;;;;;;13.70;69.00;;;;;;5007192;28;19936;-90
2023/04/18 07:32:40;;;;;;;;;;;13.70;69.00;;;;;;5026066;28;20490;-90
2023/04/18 07:35:06;;;;;;;;;;;13.70;69.00;;;;;;5010615;28;20162;-89
2023/04/18 07:37:44;;;;;;;;;;;13.70;69.10;;;;;;5009222;28;19917;-90
2023/04/18 07:40:11;;;;;;;;;;;13.70;69.10;;;;;;5009281;28;19947;-89
2023/04/18 07:42:42;;;;;;;;;;;13.70;69.20;;;;;;5006707;28;20174;-89
2023/04/18 07:45:07;;;;;;;;;;;13.70;69.10;;;;;;5009235;28;20011;-89
2023/04/18 07:47:33;;;;;;;;;;;13.70;69.00;;;;;;5006802;28;20272;-89
2023/04/18 07:49:58;;;;;;;;;;;13.70;69.10;;;;;;5027716;28;19967;-89
2023/04/18 07:52:24;;;;;;;;;;;13.70;68.90;;;;;;5028721;28;20187;-89
2023/04/18 07:54:50;;;;;;;;;;;13.70;68.90;;;;;;5010034;28;19909;-90
2023/04/18 07:57:15;;;;;;;;;;;13.80;68.90;;;;;;5011234;28;20132;-90
2023/04/18 07:59:41;;;;;;;;;;;13.80;68.90;;;;;;5029209;28;20075;-90
2023/04/18 08:02:06;;;;;;;;;;;13.80;68.70;;;;;;5011964;28;20023;-90
2023/04/18 08:04:32;;;;;;;;;;;13.80;68.80;;;;;;5013060;28;19960;-89
2023/04/18 08:06:59;;;;;;;;;;;13.80;68.90;;;;;;5014539;28;19916;-90
2023/04/18 08:09:36;;;;;;;;;;;13.80;68.90;;;;;;5013057;28;19936;-90
2023/04/18 08:12:02;;;;;;;;;;;13.80;69.10;;;;;;5013533;28;19932;-90
2023/04/18 08:14:28;;;;;;;;;;;13.80;69.20;;;;;;5011346;28;20218;-91
2023/04/18 08:16:53;;;;;;;;;;;13.70;69.30;;;;;;5012806;28;20160;-91
2023/04/18 08:19:19;;;;;;;;;;;13.70;69.40;;;;;;5013034;28;19913;-91
2023/04/18 08:21:44;;;;;;;;;;;13.70;69.40;;;;;;5012546;28;19909;-90
2023/04/18 08:24:10;;;;;;;;;;;13.70;69.60;;;;;;5027560;28;20010;-90
2023/04/18 08:26:35;;;;;;;;;;;13.70;69.70;;;;;;5011356;28;20299;-90
2023/04/18 08:29:01;;;;;;;;;;;13.70;69.80;;;;;;5011501;28;19913;-90
2023/04/18 08:31:26;;;;;;;;;;;13.70;70.00;;;;;;5012724;28;19909;-90
2023/04/18 08:33:52;;;;;;;;;;;13.70;70.10;;;;;;5029123;28;19920;-91
2023/04/18 08:36:18;;;;;;;;;;;13.70;70.30;;;;;;5010789;28;19916;-90
2023/04/18 08:38:43;;;;;;;;;;;13.70;70.30;;;;;;5011379;28;19909;-90
2023/04/18 08:41:09;;;;;;;;;;;13.70;70.50;;;;;;5012558;28;20096;-91
2023/04/18 08:43:36;;;;;;;;;;;13.70;70.50;;;;;;5013737;28;20295;-90
2023/04/18 08:46:01;;;;;;;;;;;13.60;70.50;;;;;;5014267;28;19924;-91
2023/04/18 08:48:27;;;;;;;;;;;13.60;70.50;;;;;;5031459;28;19909;-91
2023/04/18 08:51:01;;;;;;;;;;;13.60;70.60;;;;;;5013582;28;20207;-91
2023/04/18 08:53:28;;;;;;;;;;;13.60;70.80;;;;;;5031233;28;19909;-90
2023/04/18 08:55:55;;;;;;;;;;;13.60;70.90;;;;;;5028046;28;19909;-90
2023/04/18 08:58:21;;;;;;;;;;;13.60;71.10;;;;;;5012718;28;19913;-90
2023/04/18 09:00:51;;;;;;;;;;;13.60;71.10;;;;;;5014127;28;20072;-90
2023/04/18 09:03:33;;;;;;;;;;;13.60;71.30;;;;;;5014767;28;19909;-91
2023/04/18 09:06:14;;;;;;;;;;;13.60;71.40;;;;;;5011972;28;19910;-90
2023/04/18 09:08:43;;;;;;;;;;;13.60;71.50;;;;;;5010942;28;20165;-89
2023/04/18 09:11:33;;;;;;;;;;;13.60;71.70;;;;;;5031178;28;19909;-90
2023/04/18 09:14:05;;;;;;;;;;;13.60;71.60;;;;;;5013379;28;19975;-91
2023/04/18 09:16:49;;;;;;;;;;;13.50;71.70;;;;;;5014742;28;20015;-90
2023/04/18 09:19:18;;;;;;;;;;;13.60;71.80;;;;;;5013231;28;19913;-91
2023/04/18 09:21:47;;;;;;;;;;;13.60;71.90;;;;;;5014810;28;19945;-92
2023/04/18 09:24:19;;;;;;;;;;;13.60;71.90;;;;;;5013338;28;19956;-90
2023/04/18 09:26:54;;;;;;;;;;;13.60;72.00;;;;;;5028896;28;20249;-91
2023/04/18 09:29:23;;;;;;;;;;;13.60;72.00;;;;;;5014330;28;19920;-91
2023/04/18 09:32:07;;;;;;;;;;;13.60;72.00;;;;;;5012588;28;20015;-90
2023/04/18 09:34:37;;;;;;;;;;;13.60;72.10;;;;;;5011908;28;20016;-90
2023/04/18 09:37:07;;;;;;;;;;;13.60;72.30;;;;;;5012906;28;19909;-91
2023/04/18 09:39:43;;;;;;;;;;;13.60;72.30;;;;;;5013564;28;20287;-89
2023/04/18 09:42:24;;;;;;;;;;;13.70;72.50;;;;;;5014916;28;20241;-91
2023/04/18 09:45:18;;;;;;;;;;;13.70;72.50;;;;;;5010672;28;20279;-90
2023/04/18 09:47:51;;;;;;;;;;;13.70;72.70;;;;;;5028635;28;19913;-90
2023/04/18 09:50:33;;;;;;;;;;;13.70;72.60;;;;;;5011600;28;19924;-91
2023/04/18 09:52:59;;;;;;;;;;;13.70;72.50;;;;;;5012028;28;20000;-91
2023/04/18 09:55:24;;;;;;;;;;;13.70;72.60;;;;;;5012346;28;20020;-90
2023/04/18 09:57:52;;;;;;;;;;;13.70;72.60;;;;;;5011202;28;19996;-91
2023/04/18 10:00:25;;;;;;;;;;;13.70;72.80;;;;;;5012941;28;19914;-92
2023/04/18 10:02:53;;;;;;;;;;;13.70;72.80;;;;;;5010110;28;20402;-91
2023/04/18 10:05:27;;;;;;;;;;;13.80;72.90;;;;;;5010766;28;20011;-91
2023/04/18 10:07:53;;;;;;;;;;;13.70;72.80;;;;;;5012781;28;20153;-92
2023/04/18 10:10:19;;;;;;;;;;;13.80;73.00;;;;;;5013906;28;19920;-91
2023/04/18 10:12:46;;;;;;;;;;;13.80;72.90;;;;;;5009544;28;19909;-91
2023/04/18 10:15:14;;;;;;;;;;;13.90;72.80;;;;;;5010646;28;19920;-91
2023/04/18 10:17:49;;;;;;;;;;;13.90;72.80;;;;;;5010247;28;20084;-91
2023/04/18 10:20:18;;;;;;;;;;;14.00;72.60;;;;;;5010123;28;19927;-91
2023/04/18 10:22:44;;;;;;;;;;;14.10;71.80;;;;;;5012308;28;20200;-90
2023/04/18 10:25:10;;;;;;;;;;;14.20;71.60;;;;;;5009230;28;19920;-91
2023/04/18 10:27:54;;;;;;;;;;;14.20;71.40;;;;;;5012187;28;19944;-91
2023/04/18 10:30:39;;;;;;;;;;;14.30;71.40;;;;;;5028704;28;20182;-91
2023/04/18 10:33:24;;;;;;;;;;;14.40;70.90;;;;;;5006359;28;19917;-91
2023/04/18 10:35:56;;;;;;;;;;;14.50;70.60;;;;;;5024985;28;19946;-91
2023/04/18 10:38:21;;;;;;;;;;;14.60;70.50;;;;;;5005895;28;20074;-91
2023/04/18 10:40:47;;;;;;;;;;;14.70;69.90;;;;;;5008925;28;19917;-91
2023/04/18 10:43:12;;;;;;;;;;;14.90;69.10;;;;;;5010567;28;20168;-91
2023/04/18 10:46:06;;;;;;;;;;;15.00;68.80;;;;;;5008119;28;20187;-94
2023/04/18 10:48:31;;;;;;;;;;;15.10;68.50;;;;;;5008265;28;20034;-91
2023/04/18 10:51:10;;;;;;;;;;;15.30;68.20;;;;;;5023913;28;20086;-91
2023/04/18 10:53:36;;;;;;;;;;;15.40;67.60;;;;;;5009226;28;19909;-92
2023/04/18 10:56:02;;;;;;;;;;;15.40;67.40;;;;;;5007093;28;20248;-92
2023/04/18 10:58:29;;;;;;;;;;;15.50;67.70;;;;;;5005694;28;19909;-92
2023/04/18 11:00:54;;;;;;;;;;;15.40;68.20;;;;;;5005522;28;19914;-92
2023/04/18 11:03:29;;;;;;;;;;;15.40;68.30;;;;;;5004721;28;19917;-92
2023/04/18 11:06:00;;;;;;;;;;;15.40;68.70;;;;;;5007185;28;20194;-91
2023/04/18 11:08:25;;;;;;;;;;;15.40;68.90;;;;;;5005961;28;19917;-92
2023/04/18 11:10:58;;;;;;;;;;;15.30;69.20;;;;;;5006847;28;20206;-94
2023/04/18 11:13:23;;;;;;;;;;;15.30;69.20;;;;;;5017707;28;19917;-93
2023/04/18 11:15:49;;;;;;;;;;;15.30;69.70;;;;;;5006167;28;20034;-91
2023/04/18 11:18:15;;;;;;;;;;;15.30;69.70;;;;;;5004457;28;19920;-91
2023/04/18 11:20:48;;;;;;;;;;;15.40;69.70;;;;;;5006090;28;20271;-92
2023/04/18 11:23:23;;;;;;;;;;;15.50;69.90;;;;;;5004752;28;20187;-92
2023/04/18 11:25:54;;;;;;;;;;;15.60;69.60;;;;;;5010479;28;19909;-92
2023/04/18 11:28:20;;;;;;;;;;;15.70;69.60;;;;;;5004783;28;19949;-92
2023/04/18 11:30:46;;;;;;;;;;;15.60;69.60;;;;;;4991525;28;19971;-93
2023/04/18 11:33:13;;;;;;;;;;;15.50;69.90;;;;;;4989970;28;19985;-91
2023/04/18 11:35:39;;;;;;;;;;;15.50;70.00;;;;;;4991884;28;19910;-91
2023/04/18 11:38:06;;;;;;;;;;;15.50;70.10;;;;;;4989105;28;19987;-88
2023/04/18 11:40:31;;;;;;;;;;;15.50;70.60;;;;;;4989337;28;20226;-89
2023/04/18 11:42:59;;;;;;;;;;;15.50;70.70;;;;;;4989029;28;19921;-90
2023/04/18 11:45:26;;;;;;;;;;;15.50;70.70;;;;;;4990910;28;20008;-92
2023/04/18 11:47:55;;;;;;;;;;;15.50;70.70;;;;;;4988999;28;20237;-92
2023/04/18 11:50:20;;;;;;;;;;;15.60;70.80;;;;;;5005835;28;20215;-92
2023/04/18 11:52:48;;;;;;;;;;;15.60;70.60;;;;;;4988041;28;19916;-94
2023/04/18 11:55:20;;;;;;;;;;;15.70;70.30;;;;;;4987376;28;19910;-93
2023/04/18 11:57:50;;;;;;;;;;;15.70;70.30;;;;;;4990580;28;19909;-92
2023/04/18 12:00:16;;;;;;;;;;;15.70;70.20;;;;;;4990262;28;20189;-93
2023/04/18 12:02:44;;;;;;;;;;;15.80;70.10;;;;;;4990475;28;20001;-92
2023/04/18 12:05:13;;;;;;;;;;;15.80;70.10;;;;;;4989367;28;19909;-92
2023/04/18 12:07:39;;;;;;;;;;;15.80;70.10;;;;;;4989448;28;19949;-92
2023/04/18 12:10:08;;;;;;;;;;;15.80;70.00;;;;;;5008789;28;19944;-92
2023/04/18 12:12:35;;;;;;;;;;;15.80;70.20;;;;;;4994932;28;19972;-93
2023/04/18 12:15:00;;;;;;;;;;;15.80;70.20;;;;;;4992434;28;19909;-93
2023/04/18 12:17:26;;;;;;;;;;;15.80;70.20;;;;;;5006495;28;19972;-92
2023/04/18 12:19:52;;;;;;;;;;;15.80;70.30;;;;;;4989708;28;20032;-91
2023/04/18 12:22:19;;;;;;;;;;;15.80;70.40;;;;;;5008541;28;19917;-91
2023/04/18 12:24:45;;;;;;;;;;;15.70;70.30;;;;;;4988618;28;19909;-92
2023/04/18 12:27:10;;;;;;;;;;;15.80;71.00;;;;;;4985658;28;20284;-91
2023/04/18 12:29:36;;;;;;;;;;;15.80;70.30;;;;;;4986386;28;19909;-94
2023/04/18 12:32:02;;;;;;;;;;;15.80;70.50;;;;;;4990492;28;19909;-90
2023/04/18 12:34:27;;;;;;;;;;;15.80;70.60;;;;;;4990200;28;20437;-93
2023/04/18 12:36:53;;;;;;;;;;;15.80;70.60;;;;;;4989832;28;19920;-92
2023/04/18 12:39:18;;;;;;;;;;;15.80;70.70;;;;;;4991536;28;20044;-91
2023/04/18 12:41:44;;;;;;;;;;;15.80;70.80;;;;;;4988759;28;19964;-89
2023/04/18 12:44:09;;;;;;;;;;;15.80;70.80;;;;;;4978303;28;19996;-92
2023/04/18 12:46:35;;;;;;;;;;;15.80;71.00;;;;;;4994340;28;19910;-91
2023/04/18 12:49:01;;;;;;;;;;;15.80;71.10;;;;;;4990264;28;19937;-90
2023/04/18 12:51:26;;;;;;;;;;;15.80;71.10;;;;;;5008632;28;20263;-90
2023/04/18 12:53:58;;;;;;;;;;;15.80;71.40;;;;;;4989712;28;19921;-92
2023/04/18 12:56:23;;;;;;;;;;;15.80;72.10;;;;;;4986430;28;20188;-90
2023/04/18 12:58:49;;;;;;;;;;;15.80;71.50;;;;;;4989320;28;19916;-91
2023/04/18 13:01:17;;;;;;;;;;;15.80;71.60;;;;;;4990478;28;20004;-90
2023/04/18 13:03:43;;;;;;;;;;;15.80;71.60;;;;;;4998519;28;20199;-91
2023/04/18 13:06:08;;;;;;;;;;;15.80;71.60;;;;;;5010008;28;20299;-90
2023/04/18 13:08:34;;;;;;;;;;;15.90;71.50;;;;;;4991575;28;19964;-91
2023/04/18 13:11:05;;;;;;;;;;;15.90;71.50;;;;;;4992519;28;19921;-90
2023/04/18 13:13:33;;;;;;;;;;;16.00;71.50;;;;;;5005563;28;20127;-92
2023/04/18 13:16:14;;;;;;;;;;;16.00;71.60;;;;;;4990932;28;20325;-91
2023/04/18 13:18:46;;;;;;;;;;;16.10;71.70;;;;;;4990726;28;19913;-91
2023/04/18 13:21:11;;;;;;;;;;;16.10;71.50;;;;;;4987150;28;20100;-89
2023/04/18 13:23:40;;;;;;;;;;;16.20;71.40;;;;;;4987857;28;19917;-90
2023/04/18 13:26:11;;;;;;;;;;;16.20;71.50;;;;;;4985589;28;19917;-89
2023/04/18 13:28:37;;;;;;;;;;;16.20;71.40;;;;;;4990564;28;20016;-89
2023/04/18 13:31:06;;;;;;;;;;;16.20;71.30;;;;;;4988213;28;20443;-89
2023/04/18 13:33:31;;;;;;;;;;;16.20;71.40;;;;;;4975006;28;19918;-89
2023/04/18 13:35:57;;;;;;;;;;;16.20;71.40;;;;;;4990246;28;19909;-89
2023/04/18 13:38:23;;;;;;;;;;;16.20;71.60;;;;;;4989831;28;19909;-89
2023/04/18 13:40:58;;;;;;;;;;;16.10;71.70;;;;;;4988999;28;20246;-89
2023/04/18 13:43:29;;;;;;;;;;;16.20;71.70;;;;;;4986870;28;19932;-89
2023/04/18 13:45:55;;;;;;;;;;;16.20;71.60;;;;;;5006563;28;19909;-90
2023/04/18 13:48:20;;;;;;;;;;;16.20;71.70;;;;;;4987278;28;19920;-93
2023/04/18 13:50:47;;;;;;;;;;;16.20;71.70;;;;;;4989039;28;19910;-90
2023/04/18 13:53:15;;;;;;;;;;;16.20;71.60;;;;;;4989308;28;20358;-91
2023/04/18 13:55:41;;;;;;;;;;;16.20;71.50;;;;;;4989381;28;20159;-91
2023/04/18 13:58:06;;;;;;;;;;;16.20;71.40;;;;;;4989980;28;19917;-90
2023/04/18 14:00:32;;;;;;;;;;;16.30;71.50;;;;;;4991863;28;19974;-90
2023/04/18 14:02:57;;;;;;;;;;;16.20;71.40;;;;;;4988544;28;20029;-90
2023/04/18 14:05:23;;;;;;;;;;;16.30;71.60;;;;;;4984712;28;20103;-89
2023/04/18 14:07:51;;;;;;;;;;;16.30;71.50;;;;;;4986863;28;19918;-89
2023/04/18 14:10:16;;;;;;;;;;;16.30;71.50;;;;;;4987025;28;19917;-89
2023/04/18 14:12:42;;;;;;;;;;;16.30;71.40;;;;;;4984841;28;19936;-89
2023/04/18 14:15:08;;;;;;;;;;;16.30;71.50;;;;;;4984283;28;20012;-89
2023/04/18 14:17:34;;;;;;;;;;;16.30;71.70;;;;;;4985586;28;19945;-89